Time;durP1;ratioP1;P1;durP2;ratioP2;P2;SDS_P1;SDS_P2;PMS_P1;PMS_P2;Temp;Humidity;BMP_temperature;BMP_pressure;BME280_temperature;BME280_humidity;BME280_pressure;Samples;Min_cycle;Max_cycle;Signal;HPM_P1;HPM_P2
2023/04/15 00:00:46;;;;;;;0.52;0.38;;;;;;;;;;5021794;28;58692;-61
2023/04/15 00:03:12;;;;;;;0.40;0.40;;;;;;;;;;5024742;28;58578;-61
2023/04/15 00:05:37;;;;;;;0.40;0.40;;;;;;;;;;5026826;28;57864;-60
2023/04/15 00:08:02;;;;;;;0.28;0.28;;;;;;;;;;5030496;28;58087;-61
2023/04/15 00:10:27;;;;;;;0.40;0.40;;;;;;;;;;5026066;28;58300;-60
2023/04/15 00:12:52;;;;;;;0.63;0.40;;;;;;;;;;5027730;28;58848;-61
2023/04/15 00:15:18;;;;;;;0.65;0.52;;;;;;;;;;5028353;28;58407;-60
2023/04/15 00:17:43;;;;;;;0.30;0.30;;;;;;;;;;5028528;28;58717;-59
2023/04/15 00:20:09;;;;;;;0.50;0.50;;;;;;;;;;5027733;28;58351;-59
2023/04/15 00:22:34;;;;;;;0.60;0.60;;;;;;;;;;5028889;28;58405;-61
2023/04/15 00:24:59;;;;;;;0.20;0.20;;;;;;;;;;5030825;28;58388;-59
2023/04/15 00:27:25;;;;;;;0.50;0.50;;;;;;;;;;5028828;28;58325;-61
2023/04/15 00:29:50;;;;;;;0.28;0.28;;;;;;;;;;5026725;28;58283;-59
2023/04/15 00:32:15;;;;;;;0.50;0.50;;;;;;;;;;5028011;28;59006;-60
2023/04/15 00:34:41;;;;;;;0.70;0.70;;;;;;;;;;5028839;28;58360;-61
2023/04/15 00:37:06;;;;;;;0.30;0.30;;;;;;;;;;5027792;28;58482;-61
2023/04/15 00:39:31;;;;;;;0.30;0.30;;;;;;;;;;5027629;28;58490;-61
2023/04/15 00:41:56;;;;;;;0.70;0.70;;;;;;;;;;5026018;28;58635;-61
2023/04/15 00:44:22;;;;;;;0.20;0.20;;;;;;;;;;5028119;28;58463;-60
2023/04/15 00:46:48;;;;;;;0.40;0.40;;;;;;;;;;5027293;28;59342;-58
2023/04/15 00:49:13;;;;;;;0.40;0.40;;;;;;;;;;5026149;28;58526;-59
2023/04/15 00:51:38;;;;;;;0.40;0.40;;;;;;;;;;5028400;28;58669;-60
2023/04/15 00:54:03;;;;;;;0.37;0.37;;;;;;;;;;5027840;28;58610;-61
2023/04/15 00:56:29;;;;;;;0.80;0.73;;;;;;;;;;5027542;28;58828;-60
2023/04/15 00:58:54;;;;;;;0.55;0.43;;;;;;;;;;5026531;28;58605;-61
2023/04/15 01:01:20;;;;;;;0.60;0.60;;;;;;;;;;5026881;28;59309;-60
2023/04/15 01:03:45;;;;;;;0.30;0.30;;;;;;;;;;5025074;28;58644;-61
2023/04/15 01:06:11;;;;;;;0.13;0.13;;;;;;;;;;5027046;28;58766;-61
2023/04/15 01:08:36;;;;;;;0.30;0.30;;;;;;;;;;5025903;28;58768;-61
2023/04/15 01:11:02;;;;;;;0.60;0.60;;;;;;;;;;5027968;28;58394;-61
2023/04/15 01:13:28;;;;;;;0.45;0.45;;;;;;;;;;5025099;28;58726;-60
2023/04/15 01:15:55;;;;;;;0.55;0.50;;;;;;;;;;5027170;28;58661;-60
2023/04/15 01:18:20;;;;;;;0.27;0.27;;;;;;;;;;5026635;28;59032;-60
2023/04/15 01:20:46;;;;;;;0.52;0.45;;;;;;;;;;5027057;28;58861;-61
2023/04/15 01:23:12;;;;;;;0.37;0.37;;;;;;;;;;5028102;28;58205;-61
2023/04/15 01:25:37;;;;;;;0.30;0.30;;;;;;;;;;5027751;28;59363;-61
2023/04/15 01:28:02;;;;;;;0.37;0.37;;;;;;;;;;5026647;28;59329;-60
2023/04/15 01:30:28;;;;;;;0.47;0.47;;;;;;;;;;5024704;28;58900;-60
2023/04/15 01:32:53;;;;;;;0.28;0.22;;;;;;;;;;5025662;28;58568;-61
2023/04/15 01:35:18;;;;;;;0.30;0.30;;;;;;;;;;5027684;28;58364;-61
2023/04/15 01:37:43;;;;;;;0.30;0.30;;;;;;;;;;5025730;28;59406;-61
2023/04/15 01:40:09;;;;;;;0.50;0.50;;;;;;;;;;5012028;28;58287;-60
2023/04/15 01:42:35;;;;;;;0.53;0.53;;;;;;;;;;5011010;28;58196;-61
2023/04/15 01:45:00;;;;;;;0.35;0.30;;;;;;;;;;5026723;28;59252;-61
2023/04/15 01:47:26;;;;;;;0.30;0.30;;;;;;;;;;5027765;28;58885;-61
2023/04/15 01:49:51;;;;;;;0.40;0.40;;;;;;;;;;5028941;28;58838;-60
2023/04/15 01:52:17;;;;;;;0.40;0.40;;;;;;;;;;5024291;28;58486;-61
2023/04/15 01:54:42;;;;;;;0.60;0.60;;;;;;;;;;5025163;28;59432;-61
2023/04/15 01:57:07;;;;;;;0.40;0.40;;;;;;;;;;5025203;28;59198;-59
2023/04/15 01:59:32;;;;;;;0.30;0.30;;;;;;;;;;5026231;28;59256;-59
2023/04/15 02:01:58;;;;;;;0.57;0.47;;;;;;;;;;5026184;28;58173;-59
2023/04/15 02:04:23;;;;;;;0.60;0.60;;;;;;;;;;5023718;28;58464;-58
2023/04/15 02:06:49;;;;;;;0.57;0.57;;;;;;;;;;5027131;28;58597;-60
2023/04/15 02:09:14;;;;;;;0.40;0.40;;;;;;;;;;5025547;28;58888;-61
2023/04/15 02:11:39;;;;;;;0.90;0.90;;;;;;;;;;5026063;28;59301;-60
2023/04/15 02:14:05;;;;;;;0.35;0.35;;;;;;;;;;5026758;28;58590;-61
2023/04/15 02:16:31;;;;;;;0.50;0.50;;;;;;;;;;5026610;28;59648;-61
2023/04/15 02:18:56;;;;;;;0.40;0.40;;;;;;;;;;5024177;28;59539;-62
2023/04/15 02:21:21;;;;;;;0.70;0.70;;;;;;;;;;5027369;28;58495;-61
2023/04/15 02:23:47;;;;;;;0.80;0.80;;;;;;;;;;5028455;28;59175;-59
2023/04/15 02:26:12;;;;;;;0.40;0.40;;;;;;;;;;5026921;28;58558;-61
2023/04/15 02:28:37;;;;;;;0.60;0.60;;;;;;;;;;5025101;28;58530;-61
2023/04/15 02:31:06;;;;;;;0.60;0.60;;;;;;;;;;5025772;28;58942;-61
2023/04/15 02:33:31;;;;;;;0.82;0.80;;;;;;;;;;5025592;28;58299;-61
2023/04/15 02:35:56;;;;;;;0.60;0.60;;;;;;;;;;5027046;28;58975;-61
2023/04/15 02:38:21;;;;;;;0.40;0.40;;;;;;;;;;5026607;28;58562;-61
2023/04/15 02:40:48;;;;;;;0.63;0.63;;;;;;;;;;5027411;28;58551;-61
2023/04/15 02:43:13;;;;;;;0.70;0.60;;;;;;;;;;5023920;28;60258;-61
2023/04/15 02:45:38;;;;;;;0.60;0.60;;;;;;;;;;5024003;28;58345;-61
2023/04/15 02:48:05;;;;;;;0.60;0.60;;;;;;;;;;5025133;28;58540;-60
2023/04/15 02:50:30;;;;;;;0.50;0.50;;;;;;;;;;5025898;28;58184;-61
2023/04/15 02:52:55;;;;;;;0.50;0.50;;;;;;;;;;5024731;28;58510;-60
2023/04/15 02:55:21;;;;;;;0.70;0.70;;;;;;;;;;5027807;28;58466;-61
2023/04/15 02:57:46;;;;;;;0.70;0.70;;;;;;;;;;5024561;28;58746;-61
2023/04/15 03:00:13;;;;;;;0.67;0.60;;;;;;;;;;5023894;28;58495;-61
2023/04/15 03:02:38;;;;;;;0.43;0.43;;;;;;;;;;5025115;28;59012;-60
2023/04/15 03:05:04;;;;;;;0.73;0.73;;;;;;;;;;5027012;28;58828;-61
2023/04/15 03:07:29;;;;;;;1.27;0.70;;;;;;;;;;5025361;28;58451;-61
2023/04/15 03:09:55;;;;;;;0.60;0.60;;;;;;;;;;5027433;28;58665;-60
2023/04/15 03:12:20;;;;;;;0.50;0.50;;;;;;;;;;5022439;28;58852;-60
2023/04/15 03:14:45;;;;;;;0.60;0.60;;;;;;;;;;5023333;28;58785;-61
2023/04/15 03:17:10;;;;;;;0.55;0.55;;;;;;;;;;5025518;28;58744;-61
2023/04/15 03:19:36;;;;;;;0.67;0.67;;;;;;;;;;5024580;28;57905;-61
2023/04/15 03:22:01;;;;;;;0.93;0.85;;;;;;;;;;5027286;28;59148;-60
2023/04/15 03:24:28;;;;;;;0.40;0.40;;;;;;;;;;5025622;28;58732;-60
2023/04/15 03:26:54;;;;;;;0.50;0.40;;;;;;;;;;5025882;28;58505;-60
2023/04/15 03:29:19;;;;;;;0.70;0.63;;;;;;;;;;5025415;28;58848;-61
2023/04/15 03:31:44;;;;;;;1.27;0.60;;;;;;;;;;5024193;28;58540;-61
2023/04/15 03:34:09;;;;;;;0.40;0.40;;;;;;;;;;5026230;28;58721;-61
2023/04/15 03:36:35;;;;;;;0.57;0.57;;;;;;;;;;5023780;28;58805;-61
2023/04/15 03:39:00;;;;;;;0.55;0.50;;;;;;;;;;5023045;28;58360;-60
2023/04/15 03:41:27;;;;;;;0.50;0.50;;;;;;;;;;5026858;28;58428;-61
2023/04/15 03:43:52;;;;;;;0.40;0.40;;;;;;;;;;5023548;28;58594;-61
2023/04/15 03:46:17;;;;;;;0.40;0.40;;;;;;;;;;5024927;28;58767;-61
2023/04/15 03:48:42;;;;;;;0.47;0.47;;;;;;;;;;5024331;28;58767;-61
2023/04/15 03:51:07;;;;;;;0.50;0.50;;;;;;;;;;5021910;28;59152;-60
2023/04/15 03:53:32;;;;;;;0.40;0.40;;;;;;;;;;5026326;28;58807;-61
2023/04/15 03:55:58;;;;;;;0.45;0.45;;;;;;;;;;5003604;28;58425;-59
2023/04/15 03:58:23;;;;;;;0.70;0.70;;;;;;;;;;5001700;28;58559;-61
2023/04/15 04:00:48;;;;;;;0.60;0.60;;;;;;;;;;4999833;28;58642;-61
2023/04/15 04:03:13;;;;;;;0.50;0.50;;;;;;;;;;5009281;28;58506;-61
2023/04/15 04:05:40;;;;;;;0.50;0.50;;;;;;;;;;5024613;28;59121;-61
2023/04/15 04:08:05;;;;;;;0.68;0.63;;;;;;;;;;5024633;28;59966;-61
2023/04/15 04:10:30;;;;;;;0.63;0.63;;;;;;;;;;5024129;28;58748;-59
2023/04/15 04:12:55;;;;;;;0.30;0.30;;;;;;;;;;5023404;28;58694;-61
2023/04/15 04:15:21;;;;;;;0.30;0.30;;;;;;;;;;5024173;28;58420;-61
2023/04/15 04:17:46;;;;;;;0.50;0.50;;;;;;;;;;5025817;28;58946;-61
2023/04/15 04:20:11;;;;;;;0.68;0.68;;;;;;;;;;5025683;28;58474;-60
2023/04/15 04:22:37;;;;;;;0.43;0.40;;;;;;;;;;5023662;28;58497;-59
2023/04/15 04:25:02;;;;;;;0.40;0.40;;;;;;;;;;5024445;28;58408;-61
2023/04/15 04:27:27;;;;;;;0.30;0.30;;;;;;;;;;5023750;28;60036;-61
2023/04/15 04:29:53;;;;;;;0.40;0.40;;;;;;;;;;5023254;28;58439;-61
2023/04/15 04:32:18;;;;;;;0.30;0.30;;;;;;;;;;5023045;28;58449;-61
2023/04/15 04:34:43;;;;;;;0.55;0.55;;;;;;;;;;5022765;28;58423;-60
2023/04/15 04:37:08;;;;;;;0.47;0.47;;;;;;;;;;5023248;28;58591;-61
2023/04/15 04:39:33;;;;;;;0.40;0.40;;;;;;;;;;5024841;28;58306;-60
2023/04/15 04:41:58;;;;;;;0.40;0.40;;;;;;;;;;5022431;28;58802;-61
2023/04/15 04:44:23;;;;;;;0.40;0.40;;;;;;;;;;5022586;28;58678;-61
2023/04/15 04:46:49;;;;;;;0.40;0.38;;;;;;;;;;5023477;28;59191;-61
2023/04/15 04:49:14;;;;;;;0.23;0.23;;;;;;;;;;5023869;28;58143;-61
2023/04/15 04:51:39;;;;;;;0.60;0.60;;;;;;;;;;5024650;28;58657;-61
2023/04/15 04:54:04;;;;;;;0.65;0.63;;;;;;;;;;5025288;28;58896;-60
2023/04/15 04:56:29;;;;;;;0.40;0.40;;;;;;;;;;5029118;28;57909;-60
2023/04/15 04:58:55;;;;;;;0.30;0.30;;;;;;;;;;5027000;28;58220;-61
2023/04/15 05:01:20;;;;;;;0.32;0.32;;;;;;;;;;5027537;28;58382;-61
2023/04/15 05:03:45;;;;;;;0.30;0.30;;;;;;;;;;5027822;28;58609;-61
2023/04/15 05:06:10;;;;;;;0.20;0.20;;;;;;;;;;5025307;28;58474;-61
2023/04/15 05:08:36;;;;;;;0.40;0.40;;;;;;;;;;5027092;28;58612;-59
2023/04/15 05:11:02;;;;;;;0.40;0.40;;;;;;;;;;5028170;28;58389;-61
2023/04/15 05:13:28;;;;;;;0.47;0.47;;;;;;;;;;5029051;28;58792;-61
2023/04/15 05:15:53;;;;;;;0.52;0.52;;;;;;;;;;5028021;28;58517;-61
2023/04/15 05:18:19;;;;;;;0.40;0.40;;;;;;;;;;5029115;28;58825;-59
2023/04/15 05:20:45;;;;;;;0.65;0.40;;;;;;;;;;5027100;28;58771;-61
2023/04/15 05:23:10;;;;;;;0.50;0.50;;;;;;;;;;5029636;28;59370;-59
2023/04/15 05:25:35;;;;;;;0.47;0.47;;;;;;;;;;5028716;28;59087;-60
2023/04/15 05:28:00;;;;;;;0.40;0.40;;;;;;;;;;5026710;28;58501;-61
2023/04/15 05:30:25;;;;;;;0.30;0.30;;;;;;;;;;5029163;28;58194;-61
2023/04/15 05:32:51;;;;;;;0.43;0.43;;;;;;;;;;5026668;28;58771;-61
2023/04/15 05:35:16;;;;;;;0.63;0.60;;;;;;;;;;5028272;28;58713;-61
2023/04/15 05:37:41;;;;;;;0.50;0.50;;;;;;;;;;5026844;28;58050;-61
2023/04/15 05:40:09;;;;;;;0.50;0.50;;;;;;;;;;5025866;28;58699;-60
2023/04/15 05:42:34;;;;;;;0.40;0.40;;;;;;;;;;5026258;28;59632;-61
2023/04/15 05:45:00;;;;;;;0.55;0.55;;;;;;;;;;5028711;28;58944;-60
2023/04/15 05:47:26;;;;;;;0.47;0.47;;;;;;;;;;5028224;28;58371;-60
2023/04/15 05:49:51;;;;;;;0.47;0.47;;;;;;;;;;5026983;28;58550;-61
2023/04/15 05:52:16;;;;;;;0.63;0.53;;;;;;;;;;5027398;28;59172;-62
2023/04/15 05:54:42;;;;;;;0.30;0.30;;;;;;;;;;5024473;28;58686;-59
2023/04/15 05:57:07;;;;;;;0.40;0.40;;;;;;;;;;5027600;28;58710;-60
2023/04/15 05:59:32;;;;;;;0.30;0.30;;;;;;;;;;5029206;28;58762;-61
2023/04/15 06:01:57;;;;;;;0.50;0.50;;;;;;;;;;5025832;28;58557;-60
2023/04/15 06:04:22;;;;;;;0.40;0.40;;;;;;;;;;5025446;28;58561;-61
2023/04/15 06:06:48;;;;;;;0.50;0.50;;;;;;;;;;5025558;28;59075;-61
2023/04/15 06:09:13;;;;;;;0.50;0.50;;;;;;;;;;5022629;28;58438;-60
2023/04/15 06:11:40;;;;;;;0.40;0.40;;;;;;;;;;5022422;28;59261;-61
2023/04/15 06:14:05;;;;;;;0.75;0.60;;;;;;;;;;5020419;28;58900;-61
2023/04/15 06:16:30;;;;;;;0.47;0.40;;;;;;;;;;5024144;28;58648;-61
2023/04/15 06:18:55;;;;;;;0.40;0.40;;;;;;;;;;5022272;28;58784;-61
2023/04/15 06:21:20;;;;;;;0.50;0.50;;;;;;;;;;5024373;28;58794;-57
2023/04/15 06:23:45;;;;;;;0.63;0.63;;;;;;;;;;5021254;28;58570;-61
2023/04/15 06:26:11;;;;;;;0.37;0.37;;;;;;;;;;5025756;28;59082;-60
2023/04/15 06:28:36;;;;;;;0.52;0.52;;;;;;;;;;5024833;28;58424;-59
2023/04/15 06:31:01;;;;;;;0.30;0.30;;;;;;;;;;5023860;28;59202;-60
2023/04/15 06:33:27;;;;;;;0.40;0.40;;;;;;;;;;5023971;28;58351;-59
2023/04/15 06:35:52;;;;;;;0.53;0.53;;;;;;;;;;5018576;28;58622;-61
2023/04/15 06:38:17;;;;;;;0.60;0.60;;;;;;;;;;5026689;28;59119;-59
2023/04/15 06:40:42;;;;;;;0.40;0.40;;;;;;;;;;5025210;28;58498;-61
2023/04/15 06:43:08;;;;;;;0.40;0.40;;;;;;;;;;5023679;27;58594;-60
2023/04/15 06:45:33;;;;;;;0.60;0.60;;;;;;;;;;5025766;28;58991;-63
2023/04/15 06:47:58;;;;;;;1.90;0.83;;;;;;;;;;5025643;28;58506;-62
2023/04/15 06:50:23;;;;;;;2.75;0.70;;;;;;;;;;5026661;28;58771;-62
2023/04/15 06:52:48;;;;;;;1.70;0.50;;;;;;;;;;5024739;28;58727;-64
2023/04/15 06:55:14;;;;;;;0.47;0.47;;;;;;;;;;5027287;28;58625;-64
2023/04/15 06:57:39;;;;;;;0.50;0.50;;;;;;;;;;5025667;28;58325;-64
2023/04/15 07:00:04;;;;;;;1.40;0.57;;;;;;;;;;5025383;28;58709;-60
2023/04/15 07:02:30;;;;;;;2.13;0.60;;;;;;;;;;5023019;28;58784;-58
2023/04/15 07:04:55;;;;;;;0.73;0.50;;;;;;;;;;5023919;28;58613;-61
2023/04/15 07:07:21;;;;;;;0.35;0.35;;;;;;;;;;5026427;28;58766;-59
2023/04/15 07:09:46;;;;;;;0.80;0.40;;;;;;;;;;5025590;28;58373;-61
2023/04/15 07:12:11;;;;;;;0.25;0.25;;;;;;;;;;5026049;28;58395;-59
2023/04/15 07:14:36;;;;;;;0.60;0.60;;;;;;;;;;5025044;28;58792;-60
2023/04/15 07:17:02;;;;;;;3.03;0.93;;;;;;;;;;5023338;28;58982;-57
2023/04/15 07:19:27;;;;;;;0.77;0.38;;;;;;;;;;5024184;28;58554;-61
2023/04/15 07:21:52;;;;;;;1.03;0.70;;;;;;;;;;5023392;28;58439;-60
2023/04/15 07:24:18;;;;;;;3.22;0.68;;;;;;;;;;5025278;28;59750;-59
2023/04/15 07:26:44;;;;;;;2.00;0.50;;;;;;;;;;5020305;28;58513;-60
2023/04/15 07:29:09;;;;;;;0.28;0.28;;;;;;;;;;5025661;28;58456;-60
2023/04/15 07:31:35;;;;;;;0.82;0.60;;;;;;;;;;5024515;28;58700;-60
2023/04/15 07:34:01;;;;;;;0.40;0.30;;;;;;;;;;5023421;28;58392;-61
2023/04/15 07:36:27;;;;;;;1.75;0.40;;;;;;;;;;5025038;28;58436;-60
2023/04/15 07:38:54;;;;;;;0.75;0.47;;;;;;;;;;5021622;28;59072;-60
2023/04/15 07:41:19;;;;;;;0.30;0.30;;;;;;;;;;5024373;28;58751;-64
2023/04/15 07:43:44;;;;;;;1.67;0.55;;;;;;;;;;5024739;28;58925;-61
2023/04/15 07:46:10;;;;;;;0.40;0.40;;;;;;;;;;5025177;28;58971;-60
2023/04/15 07:48:35;;;;;;;2.38;0.70;;;;;;;;;;5025079;28;58195;-65
2023/04/15 07:51:01;;;;;;;0.80;0.50;;;;;;;;;;5025701;28;58329;-63
2023/04/15 07:53:26;;;;;;;2.30;0.60;;;;;;;;;;5026672;28;58403;-64
2023/04/15 07:55:51;;;;;;;1.02;0.52;;;;;;;;;;5023261;28;58312;-60
2023/04/15 07:58:17;;;;;;;1.33;1.23;;;;;;;;;;5026649;28;58186;-60
2023/04/15 08:00:42;;;;;;;3.08;0.60;;;;;;;;;;5025114;28;58685;-61
2023/04/15 08:03:07;;;;;;;2.07;0.80;;;;;;;;;;5025371;28;58693;-60
2023/04/15 08:05:32;;;;;;;1.70;0.90;;;;;;;;;;5025062;28;58791;-60
2023/04/15 08:07:57;;;;;;;1.70;0.70;;;;;;;;;;5025649;28;58460;-60
2023/04/15 08:10:22;;;;;;;2.03;0.90;;;;;;;;;;5024926;28;58441;-61
2023/04/15 08:12:48;;;;;;;1.00;0.87;;;;;;;;;;5023662;28;58531;-60
2023/04/15 08:15:13;;;;;;;0.30;0.30;;;;;;;;;;5025200;28;58822;-59
2023/04/15 08:17:39;;;;;;;7.53;0.80;;;;;;;;;;5026204;28;58736;-60
2023/04/15 08:20:04;;;;;;;0.43;0.40;;;;;;;;;;5027158;28;58546;-60
2023/04/15 08:22:29;;;;;;;1.00;0.60;;;;;;;;;;5025474;28;57966;-60
2023/04/15 08:24:55;;;;;;;1.90;0.60;;;;;;;;;;5024998;27;58686;-61
2023/04/15 08:27:20;;;;;;;0.40;0.40;;;;;;;;;;5030349;28;58753;-59
2023/04/15 08:29:46;;;;;;;1.80;0.50;;;;;;;;;;5028225;28;58200;-60
2023/04/15 08:32:11;;;;;;;0.63;0.38;;;;;;;;;;5030263;28;58447;-61
2023/04/15 08:34:36;;;;;;;0.97;0.40;;;;;;;;;;5029931;28;58660;-59
2023/04/15 08:37:01;;;;;;;0.60;0.50;;;;;;;;;;5029726;28;58882;-60
2023/04/15 08:39:27;;;;;;;0.52;0.43;;;;;;;;;;5029277;28;58363;-61
2023/04/15 08:41:58;;;;;;;0.50;0.50;;;;;;;;;;5030462;28;58130;-60
2023/04/15 08:44:24;;;;;;;0.65;0.40;;;;;;;;;;5029322;28;58530;-59
2023/04/15 08:46:50;;;;;;;0.60;0.40;;;;;;;;;;5030547;28;58469;-62
2023/04/15 08:49:16;;;;;;;0.50;0.32;;;;;;;;;;5030048;28;59036;-59
2023/04/15 08:51:42;;;;;;;0.70;0.43;;;;;;;;;;5027926;28;58549;-59
2023/04/15 08:54:07;;;;;;;1.13;0.65;;;;;;;;;;5026280;28;58653;-61
2023/04/15 08:56:33;;;;;;;0.30;0.30;;;;;;;;;;5030410;28;59241;-60
2023/04/15 08:58:59;;;;;;;0.60;0.28;;;;;;;;;;5030593;28;58490;-60
2023/04/15 09:01:24;;;;;;;1.48;0.60;;;;;;;;;;5029040;28;57988;-61
2023/04/15 09:03:50;;;;;;;0.85;0.22;;;;;;;;;;5028139;28;58363;-57
2023/04/15 09:06:16;;;;;;;0.47;0.30;;;;;;;;;;5026962;28;58383;-59
2023/04/15 09:08:41;;;;;;;1.40;0.60;;;;;;;;;;5029972;28;58411;-58
2023/04/15 09:11:06;;;;;;;0.50;0.50;;;;;;;;;;5029641;28;58773;-61
2023/04/15 09:13:31;;;;;;;0.30;0.30;;;;;;;;;;5029166;28;58124;-61
2023/04/15 09:16:00;;;;;;;0.30;0.30;;;;;;;;;;5029181;28;59640;-59
2023/04/15 09:18:35;;;;;;;0.55;0.30;;;;;;;;;;5027752;28;58885;-61
2023/04/15 09:21:14;;;;;;;0.40;0.40;;;;;;;;;;5029195;28;57960;-59
2023/04/15 09:23:40;;;;;;;0.30;0.30;;;;;;;;;;5027528;28;59308;-58
2023/04/15 09:26:06;;;;;;;0.13;0.13;;;;;;;;;;5028668;28;58350;-58
2023/04/15 09:28:31;;;;;;;1.10;0.65;;;;;;;;;;5029382;28;58292;-58
2023/04/15 09:30:57;;;;;;;0.63;0.50;;;;;;;;;;5027979;28;57806;-60
2023/04/15 09:33:23;;;;;;;0.68;0.30;;;;;;;;;;5028803;28;58492;-59
2023/04/15 09:35:56;;;;;;;0.40;0.20;;;;;;;;;;5028836;28;58514;-60
2023/04/15 09:38:21;;;;;;;0.30;0.30;;;;;;;;;;5029000;28;58609;-58
2023/04/15 09:40:47;;;;;;;0.63;0.30;;;;;;;;;;5030004;28;58359;-59
2023/04/15 09:43:12;;;;;;;0.75;0.40;;;;;;;;;;5027015;28;58280;-59
2023/04/15 09:45:37;;;;;;;1.13;0.22;;;;;;;;;;5029475;28;58687;-57
2023/04/15 09:48:19;;;;;;;1.05;0.38;;;;;;;;;;5025878;28;58407;-59
2023/04/15 09:50:45;;;;;;;0.47;0.32;;;;;;;;;;5026498;28;58308;-60
2023/04/15 09:53:14;;;;;;;0.90;0.90;;;;;;;;;;5029690;28;58176;-59
2023/04/15 09:55:42;;;;;;;0.90;0.65;;;;;;;;;;5027297;28;59059;-59
2023/04/15 09:58:08;;;;;;;0.50;0.30;;;;;;;;;;5028621;28;58459;-59
2023/04/15 10:00:33;;;;;;;0.30;0.30;;;;;;;;;;5028347;27;59306;-59
2023/04/15 10:02:58;;;;;;;0.10;0.10;;;;;;;;;;5027428;28;59020;-57
2023/04/15 10:05:24;;;;;;;0.53;0.20;;;;;;;;;;5028390;28;58379;-59
2023/04/15 10:07:49;;;;;;;0.30;0.30;;;;;;;;;;5028678;28;59322;-59
2023/04/15 10:10:15;;;;;;;0.60;0.30;;;;;;;;;;5027655;28;58200;-59
2023/04/15 10:12:40;;;;;;;0.40;0.30;;;;;;;;;;5027375;28;58818;-59
2023/04/15 10:15:11;;;;;;;0.57;0.38;;;;;;;;;;5028586;28;58823;-59
2023/04/15 10:17:37;;;;;;;0.32;0.32;;;;;;;;;;5027621;28;58454;-62
2023/04/15 10:20:03;;;;;;;0.25;0.25;;;;;;;;;;5028995;28;58655;-60
2023/04/15 10:22:29;;;;;;;0.20;0.20;;;;;;;;;;5028464;28;58101;-59
2023/04/15 10:24:55;;;;;;;0.40;0.27;;;;;;;;;;5028143;28;58384;-59
2023/04/15 10:27:20;;;;;;;0.25;0.22;;;;;;;;;;5028362;28;58982;-62
2023/04/15 10:29:46;;;;;;;0.20;0.20;;;;;;;;;;5026942;28;58482;-62
2023/04/15 10:32:12;;;;;;;0.68;0.30;;;;;;;;;;5027477;28;58579;-59
2023/04/15 10:34:37;;;;;;;0.32;0.30;;;;;;;;;;5028436;28;59385;-59
2023/04/15 10:37:03;;;;;;;0.33;0.33;;;;;;;;;;5026865;28;58323;-60
2023/04/15 10:39:37;;;;;;;0.20;0.20;;;;;;;;;;5028090;28;58702;-60
2023/04/15 10:42:06;;;;;;;0.10;0.10;;;;;;;;;;5027684;28;58546;-60
2023/04/15 10:44:31;;;;;;;0.30;0.30;;;;;;;;;;5028529;28;58651;-60
2023/04/15 10:46:57;;;;;;;0.73;0.20;;;;;;;;;;5028834;28;58675;-60
2023/04/15 10:49:25;;;;;;;0.10;0.10;;;;;;;;;;5027173;28;58550;-60
2023/04/15 10:51:51;;;;;;;0.28;0.28;;;;;;;;;;5023856;28;58709;-60
2023/04/15 10:54:22;;;;;;;0.40;0.20;;;;;;;;;;5025258;28;57826;-60
2023/04/15 10:56:50;;;;;;;1.75;0.20;;;;;;;;;;5026028;28;58233;-60
2023/04/15 10:59:15;;;;;;;0.10;0.10;;;;;;;;;;5023247;28;58223;-59
2023/04/15 11:01:58;;;;;;;0.40;0.30;;;;;;;;;;5023726;28;58571;-60
2023/04/15 11:04:45;;;;;;;0.35;0.17;;;;;;;;;;5023710;28;59642;-62
2023/04/15 11:07:10;;;;;;;1.20;0.73;;;;;;;;;;5025158;28;58821;-59
2023/04/15 11:09:36;;;;;;;0.30;0.20;;;;;;;;;;5024815;28;58540;-60
2023/04/15 11:12:08;;;;;;;0.10;0.10;;;;;;;;;;5026248;28;58397;-58
2023/04/15 11:14:38;;;;;;;0.55;0.40;;;;;;;;;;5025335;28;59106;-59
2023/04/15 11:17:03;;;;;;;0.50;0.38;;;;;;;;;;5027172;28;61691;-60
2023/04/15 11:19:34;;;;;;;1.30;0.40;;;;;;;;;;5025038;28;58455;-59
2023/04/15 11:22:06;;;;;;;0.45;0.35;;;;;;;;;;5025541;28;58352;-59
2023/04/15 11:24:31;;;;;;;1.98;0.80;;;;;;;;;;5023948;28;58509;-60
2023/04/15 11:26:57;;;;;;;1.58;0.85;;;;;;;;;;5026870;28;58315;-60
2023/04/15 11:29:27;;;;;;;2.30;1.52;;;;;;;;;;5026494;28;58967;-62
2023/04/15 11:31:52;;;;;;;1.40;1.00;;;;;;;;;;5024353;28;58242;-64
2023/04/15 11:34:24;;;;;;;3.63;1.70;;;;;;;;;;5032315;28;58567;-66
2023/04/15 11:36:50;;;;;;;1.85;1.63;;;;;;;;;;5022650;28;58654;-62
2023/04/15 11:39:15;;;;;;;7.75;1.83;;;;;;;;;;5023216;28;59492;-66
2023/04/15 11:41:42;;;;;;;3.80;2.30;;;;;;;;;;5027370;28;58700;-70
2023/04/15 11:44:17;;;;;;;2.35;1.50;;;;;;;;;;5027817;28;59585;-73
2023/04/15 11:46:42;;;;;;;4.43;1.70;;;;;;;;;;5026961;28;58893;-64
2023/04/15 11:49:07;;;;;;;5.70;2.37;;;;;;;;;;5026152;28;58191;-62
2023/04/15 11:51:33;;;;;;;6.47;2.20;;;;;;;;;;5026843;28;58658;-65
2023/04/15 11:53:58;;;;;;;3.47;2.72;;;;;;;;;;5026221;28;58419;-66
2023/04/15 11:56:24;;;;;;;2.77;1.93;;;;;;;;;;5023011;28;58608;-68
2023/04/15 11:58:55;;;;;;;3.03;2.55;;;;;;;;;;5025000;28;58405;-69
2023/04/15 12:01:29;;;;;;;4.05;1.80;;;;;;;;;;5028804;28;58321;-70
2023/04/15 12:03:55;;;;;;;2.40;2.20;;;;;;;;;;5024464;28;58369;-68
2023/04/15 12:06:21;;;;;;;3.70;2.35;;;;;;;;;;5029852;28;58226;-70
2023/04/15 12:09:05;;;;;;;4.15;1.83;;;;;;;;;;5030041;28;59409;-70
2023/04/15 12:11:37;;;;;;;3.10;2.30;;;;;;;;;;5029591;28;59578;-70
2023/04/15 12:14:15;;;;;;;6.53;2.35;;;;;;;;;;5028809;28;58752;-72
2023/04/15 12:16:41;;;;;;;3.80;2.00;;;;;;;;;;5028573;28;58605;-72
2023/04/15 12:19:08;;;;;;;3.00;1.98;;;;;;;;;;5024353;28;58354;-71
2023/04/15 12:21:35;;;;;;;3.50;1.50;;;;;;;;;;5025624;28;59083;-66
2023/04/15 12:24:04;;;;;;;2.70;1.88;;;;;;;;;;5025321;28;58469;-64
2023/04/15 12:26:32;;;;;;;3.15;1.52;;;;;;;;;;5027006;28;58831;-63
2023/04/15 12:29:04;;;;;;;2.20;2.00;;;;;;;;;;5027812;28;58423;-65
2023/04/15 12:31:29;;;;;;;2.28;1.60;;;;;;;;;;5025597;27;59740;-60
2023/04/15 12:33:55;;;;;;;3.60;2.27;;;;;;;;;;5027544;28;58779;-64
2023/04/15 12:36:20;;;;;;;3.65;2.40;;;;;;;;;;5028448;28;59744;-65
2023/04/15 12:38:46;;;;;;;3.38;2.47;;;;;;;;;;5029239;28;58698;-64
2023/04/15 12:41:11;;;;;;;3.00;1.80;;;;;;;;;;5029315;28;57877;-65
2023/04/15 12:43:36;;;;;;;2.90;1.30;;;;;;;;;;5028850;28;58703;-66
2023/04/15 12:46:01;;;;;;;2.75;1.75;;;;;;;;;;5029690;28;58433;-65
2023/04/15 12:48:26;;;;;;;4.93;2.40;;;;;;;;;;5029933;28;58579;-68
2023/04/15 12:50:51;;;;;;;2.13;1.50;;;;;;;;;;5028557;28;58677;-68
2023/04/15 12:53:17;;;;;;;3.55;1.77;;;;;;;;;;5030783;28;58405;-68
2023/04/15 12:55:42;;;;;;;4.03;2.53;;;;;;;;;;5027976;28;58896;-67
2023/04/15 12:58:07;;;;;;;2.90;2.20;;;;;;;;;;5028473;28;58935;-72
2023/04/15 13:00:33;;;;;;;4.07;1.67;;;;;;;;;;5030434;28;58657;-71
2023/04/15 13:02:58;;;;;;;3.25;2.30;;;;;;;;;;5028893;28;58730;-60
2023/04/15 13:05:23;;;;;;;2.42;1.77;;;;;;;;;;5030080;28;58766;-65
2023/04/15 13:07:49;;;;;;;5.57;2.47;;;;;;;;;;5029736;28;58643;-71
2023/04/15 13:10:14;;;;;;;3.30;2.28;;;;;;;;;;5026357;27;58501;-68
2023/04/15 13:12:40;;;;;;;3.27;2.03;;;;;;;;;;5026786;28;58521;-68
2023/04/15 13:15:05;;;;;;;4.10;2.67;;;;;;;;;;5029489;28;59051;-67
2023/04/15 13:17:31;;;;;;;3.75;2.10;;;;;;;;;;5029630;28;58374;-68
2023/04/15 13:19:56;;;;;;;2.87;1.70;;;;;;;;;;5030602;28;58902;-68
2023/04/15 13:22:21;;;;;;;2.13;1.60;;;;;;;;;;5029134;28;58700;-66
2023/04/15 13:24:46;;;;;;;4.45;1.70;;;;;;;;;;5026211;28;58306;-61
2023/04/15 13:27:12;;;;;;;5.20;2.73;;;;;;;;;;5029148;28;58178;-61
2023/04/15 13:29:39;;;;;;;2.50;1.57;;;;;;;;;;5024548;28;58517;-61
2023/04/15 13:32:04;;;;;;;3.28;2.22;;;;;;;;;;5026057;28;58694;-61
2023/04/15 13:34:29;;;;;;;2.33;1.70;;;;;;;;;;5026939;28;58952;-62
2023/04/15 13:36:55;;;;;;;1.87;1.57;;;;;;;;;;5026083;28;58526;-61
2023/04/15 13:39:20;;;;;;;3.03;2.17;;;;;;;;;;5028921;28;58434;-61
2023/04/15 13:41:47;;;;;;;3.47;2.33;;;;;;;;;;5024732;28;58438;-61
2023/04/15 13:44:12;;;;;;;2.63;2.05;;;;;;;;;;5025308;28;58726;-60
2023/04/15 13:46:39;;;;;;;3.97;2.38;;;;;;;;;;5027171;28;58740;-61
2023/04/15 13:49:04;;;;;;;6.15;2.75;;;;;;;;;;5027614;28;58446;-61
2023/04/15 13:51:30;;;;;;;9.98;2.28;;;;;;;;;;5028450;28;58770;-61
2023/04/15 13:53:56;;;;;;;3.40;2.20;;;;;;;;;;5028758;28;58144;-60
2023/04/15 13:56:22;;;;;;;2.85;2.30;;;;;;;;;;5028489;28;58485;-60
2023/04/15 13:58:47;;;;;;;3.15;2.00;;;;;;;;;;5028953;28;58390;-60
2023/04/15 14:01:12;;;;;;;3.03;1.90;;;;;;;;;;5028400;28;59258;-61
2023/04/15 14:03:37;;;;;;;2.37;1.83;;;;;;;;;;5027910;28;58069;-61
2023/04/15 14:06:03;;;;;;;4.68;2.22;;;;;;;;;;5028811;28;58318;-61
2023/04/15 14:08:28;;;;;;;4.40;2.13;;;;;;;;;;5028497;28;58383;-61
2023/04/15 14:10:53;;;;;;;3.67;2.17;;;;;;;;;;5028410;28;58808;-61
2023/04/15 14:13:19;;;;;;;2.75;1.95;;;;;;;;;;5027733;28;58576;-61
2023/04/15 14:15:44;;;;;;;4.93;2.15;;;;;;;;;;5025641;28;58553;-61
2023/04/15 14:18:09;;;;;;;2.83;1.87;;;;;;;;;;5024945;27;58186;-57
2023/04/15 14:20:34;;;;;;;3.92;2.85;;;;;;;;;;5026384;28;58683;-60
2023/04/15 14:22:59;;;;;;;2.60;1.80;;;;;;;;;;5025655;28;58398;-59
2023/04/15 14:25:25;;;;;;;2.42;2.05;;;;;;;;;;5028803;28;58791;-61
2023/04/15 14:27:51;;;;;;;2.95;1.85;;;;;;;;;;5025998;28;58756;-61
2023/04/15 14:30:16;;;;;;;4.68;2.08;;;;;;;;;;5028132;28;58789;-61
2023/04/15 14:32:41;;;;;;;1.93;1.57;;;;;;;;;;5028847;28;58778;-61
2023/04/15 14:35:06;;;;;;;4.32;1.88;;;;;;;;;;5026474;28;59555;-61